TimeCDT,TemperatureF,Dew PointF,Humidity,Sea Level PressureIn,VisibilityMPH,Wind Direction,Wind SpeedMPH,Gust SpeedMPH,PrecipitationIn,Events,Conditions,WindDirDegrees,DateUTC
12:15 AM,50.9,41.7,71,30.21,10.0,WNW,5.8,-,N/A,,Clear,290,2013-10-13 05:15:00
12:35 AM,47.8,42.8,83,30.21,10.0,NW,8.1,-,N/A,,Clear,310,2013-10-13 05:35:00
12:55 AM,46.6,41.7,83,30.22,10.0,NW,8.1,-,N/A,,Clear,320,2013-10-13 05:55:00
1:15 AM,47.5,41.9,81,30.22,10.0,NW,8.1,-,N/A,,Clear,310,2013-10-13 06:15:00
1:35 AM,46.8,42.1,84,30.23,10.0,NW,5.8,-,N/A,,Clear,310,2013-10-13 06:35:00
1:55 AM,47.7,41.9,80,30.23,10.0,WNW,4.6,-,N/A,,Clear,300,2013-10-13 06:55:00
2:15 AM,48.2,41.9,79,30.23,10.0,WNW,3.5,-,N/A,,Clear,290,2013-10-13 07:15:00
2:35 AM,47.5,41.0,78,30.24,10.0,West,3.5,-,N/A,,Clear,280,2013-10-13 07:35:00
2:55 AM,44.4,40.1,85,30.24,10.0,Calm,Calm,-,N/A,,Clear,0,2013-10-13 07:55:00
3:15 AM,46.2,40.6,81,30.24,10.0,Calm,Calm,-,N/A,,Clear,0,2013-10-13 08:15:00
3:35 AM,45.3,40.1,82,30.24,10.0,WNW,4.6,-,N/A,,Clear,290,2013-10-13 08:35:00
3:55 AM,43.0,39.4,87,30.25,10.0,Calm,Calm,-,N/A,,Clear,0,2013-10-13 08:55:00
4:15 AM,43.0,41.4,94,30.26,10.0,Calm,Calm,-,N/A,,Clear,0,2013-10-13 09:15:00
4:35 AM,42.6,41.0,94,30.26,10.0,WNW,4.6,-,N/A,,Clear,300,2013-10-13 09:35:00
4:55 AM,42.6,41.4,95,30.27,10.0,NW,4.6,-,N/A,,Clear,310,2013-10-13 09:55:00
5:15 AM,42.3,41.0,95,30.28,10.0,NW,4.6,-,N/A,,Clear,310,2013-10-13 10:15:00
5:35 AM,40.1,38.7,95,30.29,10.0,WNW,5.8,-,N/A,,Clear,300,2013-10-13 10:35:00
5:55 AM,40.1,39.2,97,30.30,10.0,NW,4.6,-,N/A,,Clear,310,2013-10-13 10:55:00
6:15 AM,41.4,40.1,95,30.31,10.0,Calm,Calm,-,N/A,,Clear,0,2013-10-13 11:15:00
6:35 AM,41.2,39.9,95,30.31,10.0,Calm,Calm,-,N/A,,Clear,0,2013-10-13 11:35:00
6:55 AM,40.8,38.7,92,30.32,10.0,NNW,5.8,-,N/A,,Clear,330,2013-10-13 11:55:00
7:15 AM,41.9,38.7,88,30.32,10.0,NW,4.6,-,N/A,,Clear,320,2013-10-13 12:15:00
7:35 AM,41.9,39.0,90,30.33,10.0,NNW,4.6,-,N/A,,Clear,330,2013-10-13 12:35:00
7:55 AM,43.0,39.4,87,30.34,10.0,North,5.8,-,N/A,,Clear,350,2013-10-13 12:55:00
8:15 AM,45.7,41.0,84,30.35,10.0,North,4.6,-,N/A,,Clear,360,2013-10-13 13:15:00
8:35 AM,48.2,41.4,77,30.36,10.0,North,4.6,-,N/A,,Clear,350,2013-10-13 13:35:00
8:55 AM,50.2,41.7,73,30.36,10.0,North,3.5,-,N/A,,Clear,360,2013-10-13 13:55:00
9:15 AM,52.2,41.7,68,30.37,10.0,North,6.9,-,N/A,,Clear,360,2013-10-13 14:15:00
9:35 AM,53.6,41.7,64,30.37,10.0,North,8.1,-,N/A,,Clear,360,2013-10-13 14:35:00
9:55 AM,55.2,42.1,61,30.38,10.0,North,6.9,-,N/A,,Clear,350,2013-10-13 14:55:00
10:15 AM,56.5,41.5,57,30.38,10.0,North,8.1,-,N/A,,Clear,360,2013-10-13 15:15:00
10:55 AM,58.8,40.5,51,30.38,10.0,NNW,11.5,-,N/A,,Clear,330,2013-10-13 15:55:00
11:15 AM,59.4,40.3,49,30.38,10.0,NNW,8.1,-,N/A,,Clear,340,2013-10-13 16:15:00
11:35 AM,59.7,37.9,44,30.38,10.0,North,9.2,-,N/A,,Clear,350,2013-10-13 16:35:00
11:55 AM,60.3,37.0,42,30.38,10.0,NW,6.9,-,N/A,,Clear,320,2013-10-13 16:55:00
12:15 PM,60.6,35.4,39,30.38,10.0,North,9.2,-,N/A,,Clear,350,2013-10-13 17:15:00
12:35 PM,61.7,34.5,36,30.37,10.0,NNW,8.1,-,N/A,,Clear,340,2013-10-13 17:35:00
12:55 PM,61.7,35.2,37,30.37,10.0,NW,8.1,-,N/A,,Clear,310,2013-10-13 17:55:00
1:15 PM,61.9,35.8,38,30.37,10.0,WNW,6.9,-,N/A,,Clear,300,2013-10-13 18:15:00
1:35 PM,62.2,35.4,37,30.37,10.0,NW,9.2,-,N/A,,Clear,320,2013-10-13 18:35:00
1:55 PM,62.1,33.1,34,30.36,10.0,North,6.9,-,N/A,,Clear,360,2013-10-13 18:55:00
2:15 PM,62.2,34.5,36,30.36,10.0,NNW,12.7,16.1,N/A,,Clear,330,2013-10-13 19:15:00
2:35 PM,62.4,34.2,35,30.35,10.0,North,3.5,-,N/A,,Clear,10,2013-10-13 19:35:00
2:55 PM,63.1,35.2,35,30.35,10.0,NW,10.4,-,N/A,,Clear,320,2013-10-13 19:55:00
3:15 PM,63.0,34.9,35,30.34,10.0,North,9.2,17.3,N/A,,Clear,10,2013-10-13 20:15:00
3:35 PM,63.5,35.6,35,30.34,10.0,NNW,10.4,-,N/A,,Clear,340,2013-10-13 20:35:00
3:55 PM,63.1,33.6,33,30.34,10.0,NNW,8.1,-,N/A,,Clear,330,2013-10-13 20:55:00
4:15 PM,63.0,33.1,33,30.34,10.0,NW,8.1,-,N/A,,Clear,320,2013-10-13 21:15:00
4:35 PM,62.6,32.7,33,30.34,10.0,North,6.9,-,N/A,,Clear,10,2013-10-13 21:35:00
4:55 PM,62.2,32.4,33,30.35,10.0,North,6.9,-,N/A,,Clear,350,2013-10-13 21:55:00
5:15 PM,61.7,33.3,34,30.35,10.0,North,5.8,-,N/A,,Clear,10,2013-10-13 22:15:00
5:35 PM,60.1,34.0,38,30.35,10.0,North,5.8,-,N/A,,Clear,10,2013-10-13 22:35:00
5:55 PM,57.9,35.6,43,30.35,10.0,North,4.6,-,N/A,,Clear,10,2013-10-13 22:55:00
6:15 PM,56.3,35.4,46,30.35,10.0,North,5.8,-,N/A,,Clear,10,2013-10-13 23:15:00
6:35 PM,56.8,34.3,43,30.35,10.0,North,4.6,-,N/A,,Clear,10,2013-10-13 23:35:00
6:55 PM,55.2,34.9,46,30.35,10.0,North,4.6,-,N/A,,Clear,10,2013-10-13 23:55:00
7:15 PM,53.2,36.0,52,30.35,10.0,North,3.5,-,N/A,,Clear,350,2013-10-14 00:15:00
7:35 PM,52.7,36.3,54,30.36,10.0,East,5.8,-,N/A,,Clear,100,2013-10-14 00:35:00
7:55 PM,51.8,39.2,62,30.36,10.0,East,5.8,-,N/A,,Clear,100,2013-10-14 00:55:00
8:15 PM,49.3,39.4,69,30.37,10.0,East,4.6,-,N/A,,Clear,100,2013-10-14 01:15:00
8:35 PM,49.1,39.7,70,30.37,10.0,East,3.5,-,N/A,,Clear,90,2013-10-14 01:35:00
8:55 PM,50.5,40.1,67,30.38,10.0,East,3.5,-,N/A,,Clear,80,2013-10-14 01:55:00
9:15 PM,47.5,39.7,75,30.38,10.0,Calm,Calm,-,N/A,,Clear,0,2013-10-14 02:15:00
9:35 PM,47.1,39.9,76,30.39,10.0,NE,3.5,-,N/A,,Clear,40,2013-10-14 02:35:00
9:55 PM,48.2,40.5,75,30.39,10.0,NE,3.5,-,N/A,,Clear,40,2013-10-14 02:55:00
10:15 PM,48.0,40.3,75,30.40,10.0,Calm,Calm,-,N/A,,Clear,0,2013-10-14 03:15:00
10:35 PM,47.8,41.0,77,30.40,10.0,Calm,Calm,-,N/A,,Clear,0,2013-10-14 03:35:00
10:55 PM,47.5,40.8,78,30.40,10.0,Calm,Calm,-,N/A,,Clear,0,2013-10-14 03:55:00
11:15 PM,47.5,40.8,78,30.40,10.0,Calm,Calm,-,N/A,,Clear,0,2013-10-14 04:15:00
11:35 PM,47.1,41.0,79,30.40,10.0,Calm,Calm,-,N/A,,Clear,0,2013-10-14 04:35:00
11:55 PM,42.8,40.5,91,30.40,10.0,South,3.5,-,N/A,,Clear,190,2013-10-14 04:55:00